East Point, Florida
Current Conditions -  °F | °C
As of 8:53 AM on Thursday 18 Dec 2014 (Local Time) from KAAF Reporting Station
Clear Clear  
Wind Chill: 52°   Ceiling: Unl
Heat Index: 52°   Visibility: 10mi
Dew Point: 44°   Wind: 7mph
Humidity: 74%   Direction: 20°NNE
Pressure: 30.21"   Gusts: NA
Location:  29.8852°N, 84.8748°W
Report Text: KAAF 181353Z AUTO 02006KT 10SM CLR 11/07 A3021 RMK AO2 SLP230 T01110067 TSNO $
Loading
Personal Weather Stations






























Interactive Weather Map New forecast layout! Learn more

10-Day Weather Forecast

Advertisements
Track Severe Weather on mobile